sensor_id;sensor_type;location;lat;lon;timestamp;P1;durP1;ratioP1;P2;durP2;ratioP2
74196;SDS011;62555;52.678;4.900;2023-02-10T00:01:38;5.38;;;2.35;;
74196;SDS011;62555;52.678;4.900;2023-02-10T00:04:03;4.97;;;2.33;;
74196;SDS011;62555;52.678;4.900;2023-02-10T00:06:29;3.55;;;2.10;;
74196;SDS011;62555;52.678;4.900;2023-02-10T00:08:56;3.78;;;2.25;;
74196;SDS011;62555;52.678;4.900;2023-02-10T00:11:22;4.35;;;2.15;;
74196;SDS011;62555;52.678;4.900;2023-02-10T00:14:08;6.57;;;2.78;;
74196;SDS011;62555;52.678;4.900;2023-02-10T00:16:33;3.60;;;2.33;;
74196;SDS011;62555;52.678;4.900;2023-02-10T00:18:59;4.95;;;2.45;;
74196;SDS011;62555;52.678;4.900;2023-02-10T00:21:24;4.55;;;1.92;;
74196;SDS011;62555;52.678;4.900;2023-02-10T00:23:49;4.43;;;2.10;;
74196;SDS011;62555;52.678;4.900;2023-02-10T00:26:15;4.63;;;2.55;;
74196;SDS011;62555;52.678;4.900;2023-02-10T00:28:40;5.78;;;2.15;;
74196;SDS011;62555;52.678;4.900;2023-02-10T00:31:10;7.85;;;2.15;;
74196;SDS011;62555;52.678;4.900;2023-02-10T00:33:36;5.45;;;2.40;;
74196;SDS011;62555;52.678;4.900;2023-02-10T00:36:05;3.30;;;2.03;;
74196;SDS011;62555;52.678;4.900;2023-02-10T00:38:32;4.07;;;2.28;;
74196;SDS011;62555;52.678;4.900;2023-02-10T00:41:07;4.45;;;1.85;;
74196;SDS011;62555;52.678;4.900;2023-02-10T00:46:04;3.47;;;1.65;;
74196;SDS011;62555;52.678;4.900;2023-02-10T00:48:29;5.20;;;1.67;;
74196;SDS011;62555;52.678;4.900;2023-02-10T00:50:55;4.65;;;2.03;;
74196;SDS011;62555;52.678;4.900;2023-02-10T00:53:20;4.45;;;1.90;;
74196;SDS011;62555;52.678;4.900;2023-02-10T00:55:45;5.20;;;2.40;;
74196;SDS011;62555;52.678;4.900;2023-02-10T00:58:10;5.80;;;1.88;;
74196;SDS011;62555;52.678;4.900;2023-02-10T01:00:36;3.83;;;2.20;;
74196;SDS011;62555;52.678;4.900;2023-02-10T01:03:01;3.75;;;1.88;;
74196;SDS011;62555;52.678;4.900;2023-02-10T01:05:26;2.72;;;1.90;;
74196;SDS011;62555;52.678;4.900;2023-02-10T01:07:52;5.38;;;1.80;;
74196;SDS011;62555;52.678;4.900;2023-02-10T01:10:18;5.00;;;2.10;;
74196;SDS011;62555;52.678;4.900;2023-02-10T01:12:44;4.35;;;1.60;;
74196;SDS011;62555;52.678;4.900;2023-02-10T01:15:09;4.60;;;1.60;;
74196;SDS011;62555;52.678;4.900;2023-02-10T01:17:35;5.10;;;1.75;;
74196;SDS011;62555;52.678;4.900;2023-02-10T01:20:00;3.38;;;1.73;;
74196;SDS011;62555;52.678;4.900;2023-02-10T01:22:26;3.70;;;1.95;;
74196;SDS011;62555;52.678;4.900;2023-02-10T01:24:51;4.25;;;1.52;;
74196;SDS011;62555;52.678;4.900;2023-02-10T01:27:16;4.03;;;1.50;;
74196;SDS011;62555;52.678;4.900;2023-02-10T01:29:42;2.05;;;1.38;;
74196;SDS011;62555;52.678;4.900;2023-02-10T01:32:07;5.20;;;2.00;;
74196;SDS011;62555;52.678;4.900;2023-02-10T01:34:32;2.33;;;1.38;;
74196;SDS011;62555;52.678;4.900;2023-02-10T01:36:58;3.10;;;1.50;;
74196;SDS011;62555;52.678;4.900;2023-02-10T01:39:23;3.35;;;1.67;;
74196;SDS011;62555;52.678;4.900;2023-02-10T01:41:48;3.33;;;1.67;;
74196;SDS011;62555;52.678;4.900;2023-02-10T01:46:45;4.47;;;1.50;;
74196;SDS011;62555;52.678;4.900;2023-02-10T01:49:12;4.15;;;1.42;;
74196;SDS011;62555;52.678;4.900;2023-02-10T01:51:45;4.80;;;1.80;;
74196;SDS011;62555;52.678;4.900;2023-02-10T01:54:12;3.45;;;1.70;;
74196;SDS011;62555;52.678;4.900;2023-02-10T01:56:40;4.47;;;1.65;;
74196;SDS011;62555;52.678;4.900;2023-02-10T01:59:06;2.47;;;1.20;;
74196;SDS011;62555;52.678;4.900;2023-02-10T02:01:31;3.72;;;1.23;;
74196;SDS011;62555;52.678;4.900;2023-02-10T02:03:56;4.90;;;1.48;;
74196;SDS011;62555;52.678;4.900;2023-02-10T02:06:22;2.30;;;1.45;;
74196;SDS011;62555;52.678;4.900;2023-02-10T02:08:47;3.85;;;1.42;;
74196;SDS011;62555;52.678;4.900;2023-02-10T02:13:53;3.67;;;1.40;;
74196;SDS011;62555;52.678;4.900;2023-02-10T02:16:34;4.85;;;1.10;;
74196;SDS011;62555;52.678;4.900;2023-02-10T02:23:00;4.82;;;1.70;;
74196;SDS011;62555;52.678;4.900;2023-02-10T02:34:02;2.58;;;1.75;;
74196;SDS011;62555;52.678;4.900;2023-02-10T02:36:37;2.67;;;1.65;;
74196;SDS011;62555;52.678;4.900;2023-02-10T02:39:05;3.80;;;1.27;;
74196;SDS011;62555;52.678;4.900;2023-02-10T02:41:31;3.13;;;1.70;;
74196;SDS011;62555;52.678;4.900;2023-02-10T02:43:57;4.38;;;1.40;;
74196;SDS011;62555;52.678;4.900;2023-02-10T02:54:24;3.72;;;1.55;;
74196;SDS011;62555;52.678;4.900;2023-02-10T03:02:18;4.25;;;1.15;;
74196;SDS011;62555;52.678;4.900;2023-02-10T03:04:44;2.83;;;1.60;;
74196;SDS011;62555;52.678;4.900;2023-02-10T03:07:10;3.78;;;1.63;;
74196;SDS011;62555;52.678;4.900;2023-02-10T03:09:35;4.20;;;1.50;;
74196;SDS011;62555;52.678;4.900;2023-02-10T03:12:01;2.13;;;1.38;;
74196;SDS011;62555;52.678;4.900;2023-02-10T03:14:26;2.63;;;1.45;;
74196;SDS011;62555;52.678;4.900;2023-02-10T03:16:51;2.85;;;1.20;;
74196;SDS011;62555;52.678;4.900;2023-02-10T03:19:17;3.40;;;1.30;;
74196;SDS011;62555;52.678;4.900;2023-02-10T03:21:42;3.63;;;1.40;;
74196;SDS011;62555;52.678;4.900;2023-02-10T03:24:07;4.68;;;1.58;;
74196;SDS011;62555;52.678;4.900;2023-02-10T03:26:34;5.32;;;1.70;;
74196;SDS011;62555;52.678;4.900;2023-02-10T03:28:59;3.63;;;1.55;;
74196;SDS011;62555;52.678;4.900;2023-02-10T03:31:25;2.95;;;1.10;;
74196;SDS011;62555;52.678;4.900;2023-02-10T03:33:50;2.65;;;1.42;;
74196;SDS011;62555;52.678;4.900;2023-02-10T03:36:15;3.10;;;1.40;;
74196;SDS011;62555;52.678;4.900;2023-02-10T03:38:41;5.15;;;1.42;;
74196;SDS011;62555;52.678;4.900;2023-02-10T03:41:07;4.43;;;1.40;;
74196;SDS011;62555;52.678;4.900;2023-02-10T03:43:32;5.15;;;1.67;;
74196;SDS011;62555;52.678;4.900;2023-02-10T03:46:01;3.53;;;1.25;;
74196;SDS011;62555;52.678;4.900;2023-02-10T03:48:28;4.70;;;1.50;;
74196;SDS011;62555;52.678;4.900;2023-02-10T03:50:56;4.10;;;1.65;;
74196;SDS011;62555;52.678;4.900;2023-02-10T03:53:23;3.53;;;1.60;;
74196;SDS011;62555;52.678;4.900;2023-02-10T03:55:48;1.65;;;0.90;;
74196;SDS011;62555;52.678;4.900;2023-02-10T03:58:13;3.28;;;1.25;;
74196;SDS011;62555;52.678;4.900;2023-02-10T04:00:39;2.50;;;1.00;;
74196;SDS011;62555;52.678;4.900;2023-02-10T04:03:04;2.00;;;1.42;;
74196;SDS011;62555;52.678;4.900;2023-02-10T04:05:29;3.55;;;1.08;;
74196;SDS011;62555;52.678;4.900;2023-02-10T04:07:55;2.40;;;1.42;;
74196;SDS011;62555;52.678;4.900;2023-02-10T04:10:20;2.10;;;1.15;;
74196;SDS011;62555;52.678;4.900;2023-02-10T04:12:46;3.20;;;1.60;;
74196;SDS011;62555;52.678;4.900;2023-02-10T04:15:12;4.53;;;2.25;;
74196;SDS011;62555;52.678;4.900;2023-02-10T04:17:37;3.70;;;1.70;;
74196;SDS011;62555;52.678;4.900;2023-02-10T04:20:02;3.10;;;1.52;;
74196;SDS011;62555;52.678;4.900;2023-02-10T04:22:28;3.38;;;1.33;;
74196;SDS011;62555;52.678;4.900;2023-02-10T04:24:53;2.85;;;1.70;;
74196;SDS011;62555;52.678;4.900;2023-02-10T04:27:19;4.22;;;1.60;;
74196;SDS011;62555;52.678;4.900;2023-02-10T04:29:44;3.45;;;1.42;;
74196;SDS011;62555;52.678;4.900;2023-02-10T04:32:09;2.17;;;1.33;;
74196;SDS011;62555;52.678;4.900;2023-02-10T04:34:35;3.65;;;1.30;;
74196;SDS011;62555;52.678;4.900;2023-02-10T04:37:00;3.42;;;1.70;;
74196;SDS011;62555;52.678;4.900;2023-02-10T04:39:26;2.55;;;1.55;;
74196;SDS011;62555;52.678;4.900;2023-02-10T04:41:51;2.38;;;0.98;;
74196;SDS011;62555;52.678;4.900;2023-02-10T04:44:16;4.28;;;1.55;;
74196;SDS011;62555;52.678;4.900;2023-02-10T04:46:42;3.03;;;1.30;;
74196;SDS011;62555;52.678;4.900;2023-02-10T04:49:07;3.40;;;1.17;;
74196;SDS011;62555;52.678;4.900;2023-02-10T04:51:32;2.47;;;1.35;;
74196;SDS011;62555;52.678;4.900;2023-02-10T04:53:58;4.32;;;1.55;;
74196;SDS011;62555;52.678;4.900;2023-02-10T04:56:23;2.67;;;1.70;;
74196;SDS011;62555;52.678;4.900;2023-02-10T04:58:49;2.47;;;1.35;;
74196;SDS011;62555;52.678;4.900;2023-02-10T05:01:14;3.63;;;1.60;;
74196;SDS011;62555;52.678;4.900;2023-02-10T05:03:40;3.10;;;1.52;;
74196;SDS011;62555;52.678;4.900;2023-02-10T05:06:07;2.63;;;1.30;;
74196;SDS011;62555;52.678;4.900;2023-02-10T05:08:33;4.70;;;1.90;;
74196;SDS011;62555;52.678;4.900;2023-02-10T05:11:00;2.90;;;1.35;;
74196;SDS011;62555;52.678;4.900;2023-02-10T05:13:25;2.63;;;1.40;;
74196;SDS011;62555;52.678;4.900;2023-02-10T05:15:51;2.65;;;1.40;;
74196;SDS011;62555;52.678;4.900;2023-02-10T05:18:16;2.13;;;1.77;;
74196;SDS011;62555;52.678;4.900;2023-02-10T05:20:41;1.95;;;1.30;;
74196;SDS011;62555;52.678;4.900;2023-02-10T05:23:07;4.28;;;1.70;;
74196;SDS011;62555;52.678;4.900;2023-02-10T05:25:32;3.05;;;1.45;;
74196;SDS011;62555;52.678;4.900;2023-02-10T05:27:57;3.97;;;1.77;;
74196;SDS011;62555;52.678;4.900;2023-02-10T05:30:23;2.90;;;1.60;;
74196;SDS011;62555;52.678;4.900;2023-02-10T05:32:48;3.08;;;1.45;;
74196;SDS011;62555;52.678;4.900;2023-02-10T05:35:13;2.85;;;1.63;;
74196;SDS011;62555;52.678;4.900;2023-02-10T05:37:39;2.58;;;1.50;;
74196;SDS011;62555;52.678;4.900;2023-02-10T05:40:04;4.03;;;1.77;;
74196;SDS011;62555;52.678;4.900;2023-02-10T05:42:30;4.43;;;1.63;;
74196;SDS011;62555;52.678;4.900;2023-02-10T05:44:55;2.35;;;1.75;;
74196;SDS011;62555;52.678;4.900;2023-02-10T05:47:21;2.42;;;1.50;;
74196;SDS011;62555;52.678;4.900;2023-02-10T05:49:46;3.17;;;1.55;;
74196;SDS011;62555;52.678;4.900;2023-02-10T05:52:11;4.07;;;1.70;;
74196;SDS011;62555;52.678;4.900;2023-02-10T05:54:37;4.47;;;1.40;;
74196;SDS011;62555;52.678;4.900;2023-02-10T05:57:02;3.22;;;1.50;;
74196;SDS011;62555;52.678;4.900;2023-02-10T05:59:28;4.10;;;1.40;;
74196;SDS011;62555;52.678;4.900;2023-02-10T06:01:53;4.13;;;1.42;;
74196;SDS011;62555;52.678;4.900;2023-02-10T06:04:18;3.50;;;1.40;;
74196;SDS011;62555;52.678;4.900;2023-02-10T06:06:44;3.05;;;1.23;;
74196;SDS011;62555;52.678;4.900;2023-02-10T06:09:09;3.75;;;1.88;;
74196;SDS011;62555;52.678;4.900;2023-02-10T06:11:34;4.82;;;1.20;;
74196;SDS011;62555;52.678;4.900;2023-02-10T06:14:00;5.32;;;1.35;;
74196;SDS011;62555;52.678;4.900;2023-02-10T06:16:25;3.42;;;1.50;;
74196;SDS011;62555;52.678;4.900;2023-02-10T06:18:51;2.60;;;1.63;;
74196;SDS011;62555;52.678;4.900;2023-02-10T06:21:16;3.30;;;1.65;;
74196;SDS011;62555;52.678;4.900;2023-02-10T06:23:42;4.57;;;1.30;;
74196;SDS011;62555;52.678;4.900;2023-02-10T06:26:08;4.43;;;1.50;;
74196;SDS011;62555;52.678;4.900;2023-02-10T06:28:33;4.00;;;1.40;;
74196;SDS011;62555;52.678;4.900;2023-02-10T06:30:58;3.22;;;1.60;;
74196;SDS011;62555;52.678;4.900;2023-02-10T06:33:24;2.47;;;1.27;;
74196;SDS011;62555;52.678;4.900;2023-02-10T06:35:50;5.15;;;1.52;;
74196;SDS011;62555;52.678;4.900;2023-02-10T06:38:15;3.38;;;1.52;;
74196;SDS011;62555;52.678;4.900;2023-02-10T06:40:41;3.63;;;1.33;;
74196;SDS011;62555;52.678;4.900;2023-02-10T06:43:06;2.72;;;1.50;;
74196;SDS011;62555;52.678;4.900;2023-02-10T06:45:31;5.65;;;1.88;;
74196;SDS011;62555;52.678;4.900;2023-02-10T06:47:58;5.35;;;1.95;;
74196;SDS011;62555;52.678;4.900;2023-02-10T06:50:23;2.67;;;1.60;;
74196;SDS011;62555;52.678;4.900;2023-02-10T06:52:49;4.53;;;1.75;;
74196;SDS011;62555;52.678;4.900;2023-02-10T06:55:14;2.25;;;1.20;;
74196;SDS011;62555;52.678;4.900;2023-02-10T06:57:40;5.63;;;1.50;;
74196;SDS011;62555;52.678;4.900;2023-02-10T07:00:07;3.08;;;1.55;;
74196;SDS011;62555;52.678;4.900;2023-02-10T07:02:34;2.72;;;1.52;;
74196;SDS011;62555;52.678;4.900;2023-02-10T07:05:00;2.83;;;1.45;;
74196;SDS011;62555;52.678;4.900;2023-02-10T07:07:27;4.15;;;1.80;;
74196;SDS011;62555;52.678;4.900;2023-02-10T07:09:53;3.75;;;1.60;;
74196;SDS011;62555;52.678;4.900;2023-02-10T07:12:19;3.08;;;1.83;;
74196;SDS011;62555;52.678;4.900;2023-02-10T07:14:44;6.75;;;1.83;;
74196;SDS011;62555;52.678;4.900;2023-02-10T07:17:10;5.32;;;2.45;;
74196;SDS011;62555;52.678;4.900;2023-02-10T07:19:35;7.55;;;1.65;;
74196;SDS011;62555;52.678;4.900;2023-02-10T07:22:01;3.30;;;1.90;;
74196;SDS011;62555;52.678;4.900;2023-02-10T07:24:29;4.40;;;1.80;;
74196;SDS011;62555;52.678;4.900;2023-02-10T07:26:55;2.88;;;1.40;;
74196;SDS011;62555;52.678;4.900;2023-02-10T07:29:21;6.30;;;2.03;;
74196;SDS011;62555;52.678;4.900;2023-02-10T07:31:46;5.57;;;2.03;;
74196;SDS011;62555;52.678;4.900;2023-02-10T07:34:11;5.22;;;2.17;;
74196;SDS011;62555;52.678;4.900;2023-02-10T07:36:37;4.85;;;1.52;;
74196;SDS011;62555;52.678;4.900;2023-02-10T07:39:02;3.50;;;1.60;;
74196;SDS011;62555;52.678;4.900;2023-02-10T07:41:27;5.10;;;1.65;;
74196;SDS011;62555;52.678;4.900;2023-02-10T07:43:53;7.68;;;1.85;;
74196;SDS011;62555;52.678;4.900;2023-02-10T07:46:18;5.18;;;1.80;;
74196;SDS011;62555;52.678;4.900;2023-02-10T07:48:44;4.95;;;1.80;;
74196;SDS011;62555;52.678;4.900;2023-02-10T07:51:09;3.83;;;1.85;;
74196;SDS011;62555;52.678;4.900;2023-02-10T07:53:34;3.90;;;1.48;;
74196;SDS011;62555;52.678;4.900;2023-02-10T07:56:02;4.20;;;1.85;;
74196;SDS011;62555;52.678;4.900;2023-02-10T07:58:28;2.92;;;2.08;;
74196;SDS011;62555;52.678;4.900;2023-02-10T08:00:54;5.05;;;2.45;;
74196;SDS011;62555;52.678;4.900;2023-02-10T08:03:20;4.50;;;1.80;;
74196;SDS011;62555;52.678;4.900;2023-02-10T08:05:45;5.03;;;2.35;;
74196;SDS011;62555;52.678;4.900;2023-02-10T08:08:13;8.18;;;1.83;;
74196;SDS011;62555;52.678;4.900;2023-02-10T08:10:39;6.20;;;2.10;;
74196;SDS011;62555;52.678;4.900;2023-02-10T08:13:04;3.83;;;1.77;;
74196;SDS011;62555;52.678;4.900;2023-02-10T08:15:29;4.88;;;2.25;;
74196;SDS011;62555;52.678;4.900;2023-02-10T08:17:55;3.58;;;2.10;;
74196;SDS011;62555;52.678;4.900;2023-02-10T08:20:20;5.80;;;2.03;;
74196;SDS011;62555;52.678;4.900;2023-02-10T08:22:45;6.15;;;1.95;;
74196;SDS011;62555;52.678;4.900;2023-02-10T08:25:11;3.80;;;2.00;;
74196;SDS011;62555;52.678;4.900;2023-02-10T08:27:36;4.35;;;2.35;;
74196;SDS011;62555;52.678;4.900;2023-02-10T08:30:02;4.53;;;2.15;;
74196;SDS011;62555;52.678;4.900;2023-02-10T08:32:30;4.95;;;2.25;;
74196;SDS011;62555;52.678;4.900;2023-02-10T08:34:55;5.75;;;2.45;;
74196;SDS011;62555;52.678;4.900;2023-02-10T08:37:21;5.85;;;1.83;;
74196;SDS011;62555;52.678;4.900;2023-02-10T08:39:46;3.15;;;2.17;;
74196;SDS011;62555;52.678;4.900;2023-02-10T08:42:11;5.43;;;2.30;;
74196;SDS011;62555;52.678;4.900;2023-02-10T08:44:37;6.20;;;2.58;;
74196;SDS011;62555;52.678;4.900;2023-02-10T08:47:02;5.53;;;2.40;;
74196;SDS011;62555;52.678;4.900;2023-02-10T08:49:28;3.13;;;1.77;;
74196;SDS011;62555;52.678;4.900;2023-02-10T08:51:54;6.40;;;2.03;;
74196;SDS011;62555;52.678;4.900;2023-02-10T08:54:19;4.22;;;2.30;;
74196;SDS011;62555;52.678;4.900;2023-02-10T08:56:45;5.95;;;2.28;;
74196;SDS011;62555;52.678;4.900;2023-02-10T08:59:11;7.18;;;2.55;;
74196;SDS011;62555;52.678;4.900;2023-02-10T09:01:37;4.57;;;2.70;;
74196;SDS011;62555;52.678;4.900;2023-02-10T09:04:02;4.63;;;2.45;;
74196;SDS011;62555;52.678;4.900;2023-02-10T09:06:32;5.38;;;2.15;;
74196;SDS011;62555;52.678;4.900;2023-02-10T09:09:05;4.28;;;2.42;;
74196;SDS011;62555;52.678;4.900;2023-02-10T09:11:31;6.05;;;2.75;;
74196;SDS011;62555;52.678;4.900;2023-02-10T09:13:57;5.95;;;2.67;;
74196;SDS011;62555;52.678;4.900;2023-02-10T09:16:22;4.25;;;2.00;;
74196;SDS011;62555;52.678;4.900;2023-02-10T09:18:48;5.45;;;2.20;;
74196;SDS011;62555;52.678;4.900;2023-02-10T09:21:13;4.50;;;2.28;;
74196;SDS011;62555;52.678;4.900;2023-02-10T09:23:38;3.15;;;1.80;;
74196;SDS011;62555;52.678;4.900;2023-02-10T09:26:04;3.65;;;1.77;;
74196;SDS011;62555;52.678;4.900;2023-02-10T09:28:29;5.05;;;2.17;;
74196;SDS011;62555;52.678;4.900;2023-02-10T09:30:55;4.25;;;2.30;;
74196;SDS011;62555;52.678;4.900;2023-02-10T09:33:20;4.88;;;2.05;;
74196;SDS011;62555;52.678;4.900;2023-02-10T09:35:45;3.13;;;1.73;;
74196;SDS011;62555;52.678;4.900;2023-02-10T09:38:11;3.88;;;2.38;;
74196;SDS011;62555;52.678;4.900;2023-02-10T09:40:44;4.10;;;1.95;;
74196;SDS011;62555;52.678;4.900;2023-02-10T09:49:17;9.00;;;2.45;;
74196;SDS011;62555;52.678;4.900;2023-02-10T09:51:55;5.82;;;2.10;;
74196;SDS011;62555;52.678;4.900;2023-02-10T09:54:29;4.97;;;1.88;;
74196;SDS011;62555;52.678;4.900;2023-02-10T09:59:26;3.60;;;2.33;;
74196;SDS011;62555;52.678;4.900;2023-02-10T10:01:54;4.80;;;2.03;;
74196;SDS011;62555;52.678;4.900;2023-02-10T10:04:21;4.07;;;1.80;;
74196;SDS011;62555;52.678;4.900;2023-02-10T10:07:48;7.25;;;2.40;;
74196;SDS011;62555;52.678;4.900;2023-02-10T10:09:45;6.32;;;2.50;;
74196;SDS011;62555;52.678;4.900;2023-02-10T10:12:15;4.20;;;2.08;;
74196;SDS011;62555;52.678;4.900;2023-02-10T10:14:42;5.10;;;2.35;;
74196;SDS011;62555;52.678;4.900;2023-02-10T10:19:57;2.58;;;2.05;;
74196;SDS011;62555;52.678;4.900;2023-02-10T10:30:46;7.70;;;2.60;;
74196;SDS011;62555;52.678;4.900;2023-02-10T10:33:23;4.13;;;2.22;;
74196;SDS011;62555;52.678;4.900;2023-02-10T10:36:11;5.75;;;1.90;;
74196;SDS011;62555;52.678;4.900;2023-02-10T10:38:40;4.78;;;1.98;;
74196;SDS011;62555;52.678;4.900;2023-02-10T10:41:11;4.20;;;1.98;;
74196;SDS011;62555;52.678;4.900;2023-02-10T10:43:41;5.13;;;2.28;;
74196;SDS011;62555;52.678;4.900;2023-02-10T10:46:57;5.78;;;2.00;;
74196;SDS011;62555;52.678;4.900;2023-02-10T10:49:07;4.93;;;1.77;;
74196;SDS011;62555;52.678;4.900;2023-02-10T10:51:33;6.63;;;2.53;;
74196;SDS011;62555;52.678;4.900;2023-02-10T10:53:59;3.85;;;1.98;;
74196;SDS011;62555;52.678;4.900;2023-02-10T10:59:16;8.45;;;2.08;;
74196;SDS011;62555;52.678;4.900;2023-02-10T11:01:45;4.05;;;1.52;;
74196;SDS011;62555;52.678;4.900;2023-02-10T11:04:16;4.00;;;1.83;;
74196;SDS011;62555;52.678;4.900;2023-02-10T11:06:47;5.25;;;1.70;;
74196;SDS011;62555;52.678;4.900;2023-02-10T11:12:06;5.25;;;2.00;;
74196;SDS011;62555;52.678;4.900;2023-02-10T11:14:40;3.03;;;1.40;;
74196;SDS011;62555;52.678;4.900;2023-02-10T11:17:17;4.95;;;1.70;;
74196;SDS011;62555;52.678;4.900;2023-02-10T11:19:52;4.22;;;1.80;;
74196;SDS011;62555;52.678;4.900;2023-02-10T11:22:22;4.90;;;1.33;;
74196;SDS011;62555;52.678;4.900;2023-02-10T11:24:49;5.07;;;1.70;;
74196;SDS011;62555;52.678;4.900;2023-02-10T11:27:16;4.88;;;1.52;;
74196;SDS011;62555;52.678;4.900;2023-02-10T11:29:48;7.72;;;1.60;;
74196;SDS011;62555;52.678;4.900;2023-02-10T11:32:36;5.20;;;1.25;;
74196;SDS011;62555;52.678;4.900;2023-02-10T11:35:06;6.45;;;1.63;;
74196;SDS011;62555;52.678;4.900;2023-02-10T11:37:40;6.72;;;1.70;;
74196;SDS011;62555;52.678;4.900;2023-02-10T11:40:18;2.53;;;1.48;;
74196;SDS011;62555;52.678;4.900;2023-02-10T11:43:10;5.30;;;1.70;;
74196;SDS011;62555;52.678;4.900;2023-02-10T11:45:38;3.33;;;1.23;;
74196;SDS011;62555;52.678;4.900;2023-02-10T11:50:34;3.92;;;1.10;;
74196;SDS011;62555;52.678;4.900;2023-02-10T11:53:00;4.47;;;1.65;;
74196;SDS011;62555;52.678;4.900;2023-02-10T11:55:27;5.72;;;2.10;;
74196;SDS011;62555;52.678;4.900;2023-02-10T12:01:32;4.88;;;1.75;;
74196;SDS011;62555;52.678;4.900;2023-02-10T12:09:55;4.43;;;1.58;;
74196;SDS011;62555;52.678;4.900;2023-02-10T12:21:41;5.28;;;1.60;;
74196;SDS011;62555;52.678;4.900;2023-02-10T12:27:15;2.72;;;1.48;;
74196;SDS011;62555;52.678;4.900;2023-02-10T12:41:14;7.47;;;1.95;;
74196;SDS011;62555;52.678;4.900;2023-02-10T12:51:25;6.00;;;2.20;;
74196;SDS011;62555;52.678;4.900;2023-02-10T12:57:05;4.88;;;1.95;;
74196;SDS011;62555;52.678;4.900;2023-02-10T12:59:36;8.38;;;2.08;;
74196;SDS011;62555;52.678;4.900;2023-02-10T13:05:18;7.03;;;2.30;;
74196;SDS011;62555;52.678;4.900;2023-02-10T13:16:08;7.78;;;2.63;;
74196;SDS011;62555;52.678;4.900;2023-02-10T13:21:33;7.07;;;2.67;;
74196;SDS011;62555;52.678;4.900;2023-02-10T13:24:08;6.40;;;2.80;;
74196;SDS011;62555;52.678;4.900;2023-02-10T13:34:44;5.35;;;2.60;;
74196;SDS011;62555;52.678;4.900;2023-02-10T13:37:15;3.47;;;2.13;;
74196;SDS011;62555;52.678;4.900;2023-02-10T13:39:50;6.70;;;2.78;;
74196;SDS011;62555;52.678;4.900;2023-02-10T13:44:56;6.88;;;3.15;;
74196;SDS011;62555;52.678;4.900;2023-02-10T13:47:27;5.72;;;2.42;;
74196;SDS011;62555;52.678;4.900;2023-02-10T14:00:44;4.38;;;2.40;;
74196;SDS011;62555;52.678;4.900;2023-02-10T14:08:38;7.78;;;3.15;;
74196;SDS011;62555;52.678;4.900;2023-02-10T14:11:22;8.07;;;3.03;;
74196;SDS011;62555;52.678;4.900;2023-02-10T14:13:58;6.38;;;3.35;;
74196;SDS011;62555;52.678;4.900;2023-02-10T14:16:29;7.57;;;3.13;;
74196;SDS011;62555;52.678;4.900;2023-02-10T14:19:04;4.88;;;3.58;;
74196;SDS011;62555;52.678;4.900;2023-02-10T14:21:41;5.00;;;2.70;;
74196;SDS011;62555;52.678;4.900;2023-02-10T14:24:17;5.05;;;2.90;;
74196;SDS011;62555;52.678;4.900;2023-02-10T14:29:13;4.63;;;2.45;;
74196;SDS011;62555;52.678;4.900;2023-02-10T14:31:40;5.40;;;3.50;;
74196;SDS011;62555;52.678;4.900;2023-02-10T14:34:40;5.72;;;3.30;;
74196;SDS011;62555;52.678;4.900;2023-02-10T14:37:10;8.10;;;3.42;;
74196;SDS011;62555;52.678;4.900;2023-02-10T14:39:39;6.35;;;3.00;;
74196;SDS011;62555;52.678;4.900;2023-02-10T14:42:05;6.68;;;3.35;;
74196;SDS011;62555;52.678;4.900;2023-02-10T14:44:35;5.03;;;2.65;;
74196;SDS011;62555;52.678;4.900;2023-02-10T14:47:03;4.97;;;2.95;;
74196;SDS011;62555;52.678;4.900;2023-02-10T14:49:29;8.45;;;3.22;;
74196;SDS011;62555;52.678;4.900;2023-02-10T14:52:00;6.80;;;3.20;;
74196;SDS011;62555;52.678;4.900;2023-02-10T14:54:25;5.60;;;3.25;;
74196;SDS011;62555;52.678;4.900;2023-02-10T14:56:52;8.27;;;3.25;;
74196;SDS011;62555;52.678;4.900;2023-02-10T14:59:23;4.72;;;3.67;;
74196;SDS011;62555;52.678;4.900;2023-02-10T15:01:51;4.57;;;2.20;;
74196;SDS011;62555;52.678;4.900;2023-02-10T15:04:17;4.57;;;2.42;;
74196;SDS011;62555;52.678;4.900;2023-02-10T15:06:44;6.32;;;3.13;;
74196;SDS011;62555;52.678;4.900;2023-02-10T15:09:17;4.50;;;2.45;;
74196;SDS011;62555;52.678;4.900;2023-02-10T15:11:47;4.45;;;2.65;;
74196;SDS011;62555;52.678;4.900;2023-02-10T15:14:34;6.38;;;2.60;;
74196;SDS011;62555;52.678;4.900;2023-02-10T15:17:04;6.65;;;3.42;;
74196;SDS011;62555;52.678;4.900;2023-02-10T15:19:31;5.72;;;2.67;;
74196;SDS011;62555;52.678;4.900;2023-02-10T15:21:56;5.85;;;2.60;;
74196;SDS011;62555;52.678;4.900;2023-02-10T15:24:25;3.97;;;2.53;;
74196;SDS011;62555;52.678;4.900;2023-02-10T15:27:07;5.13;;;2.55;;
74196;SDS011;62555;52.678;4.900;2023-02-10T15:29:42;4.57;;;2.22;;
74196;SDS011;62555;52.678;4.900;2023-02-10T15:32:15;4.68;;;2.22;;
74196;SDS011;62555;52.678;4.900;2023-02-10T15:34:42;5.80;;;2.55;;
74196;SDS011;62555;52.678;4.900;2023-02-10T15:37:13;8.20;;;2.65;;
74196;SDS011;62555;52.678;4.900;2023-02-10T15:39:43;4.05;;;2.35;;
74196;SDS011;62555;52.678;4.900;2023-02-10T15:42:21;4.43;;;2.70;;
74196;SDS011;62555;52.678;4.900;2023-02-10T15:44:47;3.80;;;2.15;;
74196;SDS011;62555;52.678;4.900;2023-02-10T15:47:26;7.57;;;2.33;;
74196;SDS011;62555;52.678;4.900;2023-02-10T15:49:54;6.05;;;2.72;;
74196;SDS011;62555;52.678;4.900;2023-02-10T15:55:01;3.13;;;1.80;;
74196;SDS011;62555;52.678;4.900;2023-02-10T15:57:28;5.15;;;2.33;;
74196;SDS011;62555;52.678;4.900;2023-02-10T15:59:53;8.25;;;3.05;;
74196;SDS011;62555;52.678;4.900;2023-02-10T16:02:19;6.28;;;2.60;;
74196;SDS011;62555;52.678;4.900;2023-02-10T16:04:46;10.48;;;3.92;;
74196;SDS011;62555;52.678;4.900;2023-02-10T16:07:13;6.70;;;2.85;;
74196;SDS011;62555;52.678;4.900;2023-02-10T16:09:42;4.88;;;2.75;;
74196;SDS011;62555;52.678;4.900;2023-02-10T16:12:07;5.18;;;2.70;;
74196;SDS011;62555;52.678;4.900;2023-02-10T16:14:33;7.20;;;2.90;;
74196;SDS011;62555;52.678;4.900;2023-02-10T16:16:58;4.38;;;2.47;;
74196;SDS011;62555;52.678;4.900;2023-02-10T16:19:25;7.03;;;3.17;;
74196;SDS011;62555;52.678;4.900;2023-02-10T16:24:20;4.82;;;2.95;;
74196;SDS011;62555;52.678;4.900;2023-02-10T16:26:47;3.80;;;2.80;;
74196;SDS011;62555;52.678;4.900;2023-02-10T16:29:16;5.60;;;3.30;;
74196;SDS011;62555;52.678;4.900;2023-02-10T16:31:42;5.65;;;3.83;;
74196;SDS011;62555;52.678;4.900;2023-02-10T16:34:08;4.50;;;3.38;;
74196;SDS011;62555;52.678;4.900;2023-02-10T16:36:34;7.03;;;3.35;;
74196;SDS011;62555;52.678;4.900;2023-02-10T16:39:00;6.50;;;3.67;;
74196;SDS011;62555;52.678;4.900;2023-02-10T16:41:25;8.50;;;4.10;;
74196;SDS011;62555;52.678;4.900;2023-02-10T16:43:51;6.28;;;4.43;;
74196;SDS011;62555;52.678;4.900;2023-02-10T16:46:17;7.00;;;4.55;;
74196;SDS011;62555;52.678;4.900;2023-02-10T16:48:43;10.20;;;4.60;;
74196;SDS011;62555;52.678;4.900;2023-02-10T16:51:09;8.13;;;4.78;;
74196;SDS011;62555;52.678;4.900;2023-02-10T16:53:34;7.25;;;4.38;;
74196;SDS011;62555;52.678;4.900;2023-02-10T16:55:59;11.05;;;5.03;;
74196;SDS011;62555;52.678;4.900;2023-02-10T16:58:27;8.75;;;5.03;;
74196;SDS011;62555;52.678;4.900;2023-02-10T17:00:52;9.95;;;4.88;;
74196;SDS011;62555;52.678;4.900;2023-02-10T17:03:18;10.43;;;5.47;;
74196;SDS011;62555;52.678;4.900;2023-02-10T17:05:44;9.70;;;5.63;;
74196;SDS011;62555;52.678;4.900;2023-02-10T17:08:10;8.38;;;5.13;;
74196;SDS011;62555;52.678;4.900;2023-02-10T17:10:35;8.95;;;5.25;;
74196;SDS011;62555;52.678;4.900;2023-02-10T17:13:01;9.38;;;5.57;;
74196;SDS011;62555;52.678;4.900;2023-02-10T17:15:28;9.23;;;5.13;;
74196;SDS011;62555;52.678;4.900;2023-02-10T17:17:53;9.18;;;5.25;;
74196;SDS011;62555;52.678;4.900;2023-02-10T17:20:20;9.70;;;4.70;;
74196;SDS011;62555;52.678;4.900;2023-02-10T17:22:51;8.98;;;4.90;;
74196;SDS011;62555;52.678;4.900;2023-02-10T17:25:17;8.90;;;5.18;;